createdAt,value
2023-04-10T00:02:25.876Z,24.30
2023-04-10T00:04:56.596Z,24.60
2023-04-10T00:07:27.583Z,26.60
2023-04-10T00:09:58.216Z,26.40
2023-04-10T00:12:28.832Z,25.50
2023-04-10T00:14:59.497Z,26.00
2023-04-10T00:17:30.006Z,27.70
2023-04-10T00:20:00.759Z,27.10
2023-04-10T00:22:31.592Z,27.90
2023-04-10T00:25:02.088Z,29.50
2023-04-10T00:27:32.520Z,28.10
2023-04-10T00:30:03.787Z,27.30
2023-04-10T00:32:34.455Z,25.50
2023-04-10T00:35:05.481Z,23.90
2023-04-10T00:37:35.955Z,26.90
2023-04-10T00:40:07.849Z,27.70
2023-04-10T00:42:38.466Z,28.90
2023-04-10T00:45:12.083Z,27.70
2023-04-10T00:50:13.383Z,26.90
2023-04-10T00:52:44.081Z,29.40
2023-04-10T00:55:15.923Z,29.60
2023-04-10T00:57:47.714Z,29.50
2023-04-10T01:00:19.237Z,31.30
2023-04-10T01:02:50.449Z,29.40
2023-04-10T01:05:21.197Z,29.80
2023-04-10T01:08:05.670Z,29.00
2023-04-10T01:10:43.406Z,28.00
2023-04-10T01:13:27.317Z,26.80
2023-04-10T01:16:03.795Z,27.00
2023-04-10T01:18:42.771Z,26.50
2023-04-10T01:21:15.894Z,27.40
2023-04-10T01:24:16.879Z,26.90
2023-04-10T01:27:04.082Z,26.40
2023-04-10T01:29:37.193Z,27.50
2023-04-10T01:32:14.357Z,27.10
2023-04-10T01:34:47.883Z,26.20
2023-04-10T01:37:24.774Z,26.80
2023-04-10T01:40:00.459Z,26.80
2023-04-10T01:42:36.374Z,26.80
2023-04-10T01:45:10.488Z,26.50
2023-04-10T01:47:41.349Z,27.80
2023-04-10T01:50:12.985Z,25.10
2023-04-10T01:52:44.944Z,24.30
2023-04-10T01:55:22.012Z,24.50
2023-04-10T01:57:57.260Z,24.60
2023-04-10T02:00:28.891Z,26.50
2023-04-10T02:02:59.720Z,25.40
2023-04-10T02:05:42.470Z,24.50
2023-04-10T02:08:19.566Z,24.40
2023-04-10T02:10:57.774Z,23.40
2023-04-10T02:13:32.249Z,23.90
2023-04-10T02:16:08.530Z,23.20
2023-04-10T02:18:39.948Z,24.00
2023-04-10T02:21:11.881Z,24.20
2023-04-10T02:23:45.404Z,23.60
2023-04-10T02:26:16.307Z,23.90
2023-04-10T02:28:47.139Z,22.50
2023-04-10T02:31:18.233Z,24.80
2023-04-10T02:33:49.631Z,21.70
2023-04-10T02:36:21.757Z,21.30
2023-04-10T02:38:52.740Z,21.00
2023-04-10T02:41:25.829Z,22.20
2023-04-10T02:43:56.973Z,22.10
2023-04-10T02:46:30.597Z,22.30
2023-04-10T02:49:02.654Z,22.10
2023-04-10T02:51:37.715Z,23.20
2023-04-10T02:54:08.820Z,21.50
2023-04-10T02:56:40.582Z,22.50
2023-04-10T02:59:11.520Z,21.60
2023-04-10T03:01:42.665Z,22.10
2023-04-10T03:04:14.033Z,22.20
2023-04-10T03:06:45.574Z,20.70
2023-04-10T03:09:16.506Z,22.60
2023-04-10T03:11:47.444Z,22.20
2023-04-10T03:14:18.386Z,21.20
2023-04-10T03:16:50.527Z,19.70
2023-04-10T03:19:21.799Z,22.50
2023-04-10T03:21:52.739Z,20.10
2023-04-10T03:24:23.693Z,20.40
2023-04-10T03:26:57.050Z,20.30
2023-04-10T03:29:27.910Z,19.70
2023-04-10T03:31:59.632Z,20.90
2023-04-10T03:34:31.025Z,21.10
2023-04-10T03:37:01.853Z,19.30
2023-04-10T03:39:33.822Z,20.80
2023-04-10T03:42:04.861Z,19.40
2023-04-10T03:44:36.113Z,18.20
2023-04-10T03:47:07.352Z,18.70
2023-04-10T03:49:38.605Z,18.80
2023-04-10T03:52:10.565Z,18.80
2023-04-10T03:54:42.835Z,17.50
2023-04-10T03:57:21.354Z,18.30
2023-04-10T03:59:52.802Z,17.00
2023-04-10T04:02:23.677Z,21.10
2023-04-10T04:04:54.714Z,20.70
2023-04-10T04:07:45.299Z,20.70
2023-04-10T04:10:33.594Z,21.00
2023-04-10T04:13:15.802Z,20.70
2023-04-10T04:16:13.613Z,20.10
2023-04-10T04:18:50.757Z,22.20
2023-04-10T04:21:32.675Z,21.30
2023-04-10T04:24:23.265Z,20.90
2023-04-10T04:27:07.124Z,20.90
2023-04-10T04:29:50.872Z,21.40
2023-04-10T04:32:29.841Z,22.30
2023-04-10T04:35:09.798Z,22.70
2023-04-10T04:37:53.956Z,22.00
2023-04-10T04:40:53.609Z,24.20
2023-04-10T04:43:44.472Z,24.90
2023-04-10T04:46:44.516Z,26.90
2023-04-10T04:49:15.710Z,25.10
2023-04-10T04:51:51.462Z,24.90
2023-04-10T04:54:45.474Z,25.80
2023-04-10T04:57:34.344Z,24.90
2023-04-10T05:00:11.312Z,25.00
2023-04-10T05:03:00.994Z,27.50
2023-04-10T05:06:01.585Z,24.80
2023-04-10T05:08:53.868Z,24.70
2023-04-10T05:11:48.255Z,25.70
2023-04-10T05:14:23.691Z,25.80
2023-04-10T05:17:11.270Z,24.00
2023-04-10T05:19:47.504Z,23.80
2023-04-10T05:22:38.984Z,26.40
2023-04-10T05:25:38.408Z,25.30
2023-04-10T05:28:32.147Z,27.80
2023-04-10T05:31:25.754Z,28.50
2023-04-10T05:34:12.833Z,57.60
2023-04-10T05:37:12.994Z,28.60
2023-04-10T05:40:03.347Z,26.80
2023-04-10T05:42:41.747Z,25.60
2023-04-10T05:45:28.788Z,25.00
2023-04-10T05:48:18.966Z,23.90
2023-04-10T05:51:19.631Z,23.90
2023-04-10T05:54:18.621Z,23.90
2023-04-10T05:57:15.445Z,30.40
2023-04-10T05:59:51.916Z,25.30
2023-04-10T06:02:44.418Z,24.90
2023-04-10T06:05:21.332Z,24.50
2023-04-10T06:07:52.580Z,24.70
2023-04-10T06:10:23.752Z,24.80
2023-04-10T06:12:55.461Z,24.00
2023-04-10T06:15:26.354Z,23.60
2023-04-10T06:17:57.117Z,22.70
2023-04-10T06:20:27.840Z,22.70
2023-04-10T06:22:59.554Z,23.40
2023-04-10T06:25:30.813Z,25.10
2023-04-10T06:28:02.977Z,25.50
2023-04-10T06:30:34.775Z,26.10
2023-04-10T06:33:05.860Z,24.90
2023-04-10T06:38:08.384Z,21.70
2023-04-10T06:40:39.337Z,22.90
2023-04-10T06:43:09.784Z,21.30
2023-04-10T06:45:43.140Z,20.40
2023-04-10T06:48:13.653Z,21.50
2023-04-10T06:50:44.146Z,21.20
2023-04-10T06:53:14.721Z,21.30
2023-04-10T06:55:45.647Z,21.00
2023-04-10T06:58:16.477Z,21.30
2023-04-10T07:00:48.024Z,21.60
2023-04-10T07:03:18.579Z,20.30
2023-04-10T07:05:49.227Z,21.30
2023-04-10T07:08:19.748Z,22.00
2023-04-10T07:10:50.487Z,21.00
2023-04-10T07:13:20.932Z,21.30
2023-04-10T07:15:51.670Z,22.50
2023-04-10T07:18:22.142Z,22.10
2023-04-10T07:20:54.176Z,21.50
2023-04-10T07:23:24.675Z,22.50
2023-04-10T07:25:55.092Z,21.30
2023-04-10T07:28:25.735Z,22.50
2023-04-10T07:30:56.557Z,22.80
2023-04-10T07:33:27.367Z,22.50
2023-04-10T07:35:57.902Z,22.70
2023-04-10T07:38:28.520Z,22.70
2023-04-10T07:41:00.460Z,22.10
2023-04-10T07:43:30.979Z,23.70
2023-04-10T07:46:01.729Z,23.00
2023-04-10T07:48:32.430Z,25.70
2023-04-10T07:51:03.063Z,27.30
2023-04-10T07:53:33.511Z,25.80
2023-04-10T07:56:04.395Z,26.90
2023-04-10T07:58:36.024Z,23.60
2023-04-10T08:01:07.824Z,24.40
2023-04-10T08:03:43.038Z,25.40
2023-04-10T08:06:14.192Z,24.30
2023-04-10T08:08:44.951Z,23.70
2023-04-10T08:11:27.989Z,23.50
2023-04-10T08:14:01.769Z,24.00
2023-04-10T08:16:34.620Z,26.30
2023-04-10T08:19:05.672Z,30.70
2023-04-10T08:21:36.141Z,24.70
2023-04-10T08:24:07.628Z,26.50
2023-04-10T08:26:38.076Z,25.20
2023-04-10T08:29:09.056Z,26.20
2023-04-10T08:31:39.479Z,22.70
2023-04-10T08:34:09.942Z,23.60
2023-04-10T08:36:40.416Z,23.10
2023-04-10T08:39:10.888Z,21.10
2023-04-10T08:41:43.215Z,20.60
2023-04-10T08:44:14.184Z,22.60
2023-04-10T08:46:46.039Z,28.70
2023-04-10T08:49:25.672Z,24.70
2023-04-10T08:52:00.110Z,21.20
2023-04-10T08:54:34.882Z,21.00
2023-04-10T08:57:09.744Z,21.90
2023-04-10T08:59:41.203Z,21.50
2023-04-10T09:02:11.813Z,20.20
2023-04-10T09:04:47.511Z,21.00
2023-04-10T09:07:18.543Z,21.20
2023-04-10T09:09:49.236Z,19.70
2023-04-10T09:12:19.784Z,19.90
2023-04-10T09:14:53.438Z,21.30
2023-04-10T09:17:25.515Z,20.50
2023-04-10T09:19:57.069Z,20.60
2023-04-10T09:22:34.495Z,21.20
2023-04-10T09:25:07.267Z,19.60
2023-04-10T09:27:40.134Z,19.30
2023-04-10T09:30:11.922Z,19.30
2023-04-10T09:32:44.256Z,20.30
2023-04-10T09:35:16.180Z,20.60
2023-04-10T09:37:48.269Z,20.10
2023-04-10T09:42:57.905Z,19.10
2023-04-10T09:45:47.573Z,19.60
2023-04-10T09:48:18.242Z,20.50
2023-04-10T09:50:49.291Z,20.30
2023-04-10T09:53:21.145Z,20.30
2023-04-10T09:55:52.586Z,20.70
2023-04-10T09:58:25.449Z,21.50
2023-04-10T10:00:56.360Z,20.10
2023-04-10T10:03:27.236Z,20.30
2023-04-10T10:05:57.986Z,18.80
2023-04-10T10:08:28.763Z,21.80
2023-04-10T10:11:01.618Z,19.50
2023-04-10T10:13:42.561Z,20.40
2023-04-10T10:16:20.508Z,20.00
2023-04-10T10:18:58.431Z,19.40
2023-04-10T10:21:29.700Z,20.50
2023-04-10T10:24:02.718Z,19.80
2023-04-10T10:26:36.546Z,19.80
2023-04-10T10:29:10.896Z,19.00
2023-04-10T10:31:41.619Z,20.10
2023-04-10T10:34:13.641Z,18.70
2023-04-10T10:36:44.097Z,19.40
2023-04-10T10:39:30.489Z,19.40
2023-04-10T10:42:10.255Z,20.10
2023-04-10T10:44:49.038Z,19.20
2023-04-10T10:47:23.419Z,19.70
2023-04-10T10:49:59.520Z,19.60
2023-04-10T10:52:49.075Z,19.10
2023-04-10T10:55:38.461Z,19.00
2023-04-10T10:58:11.317Z,31.40
2023-04-10T11:01:11.142Z,24.20
2023-04-10T11:03:42.087Z,19.30
2023-04-10T11:06:13.853Z,20.30
2023-04-10T11:08:49.233Z,18.60
2023-04-10T11:11:24.108Z,18.00
2023-04-10T11:14:21.588Z,16.50
2023-04-10T11:16:52.165Z,16.90
2023-04-10T11:19:25.313Z,18.00
2023-04-10T11:22:10.676Z,17.50
2023-04-10T11:25:02.552Z,17.60
2023-04-10T11:27:46.350Z,17.70
2023-04-10T11:30:37.822Z,18.30
2023-04-10T11:33:08.414Z,17.70
2023-04-10T11:35:39.704Z,21.40
2023-04-10T11:38:18.587Z,22.60
2023-04-10T11:41:01.614Z,17.70
2023-04-10T11:43:33.779Z,18.80
2023-04-10T11:48:35.262Z,17.40
2023-04-10T11:51:14.024Z,17.00
2023-04-10T11:53:45.122Z,17.60
2023-04-10T11:56:22.855Z,17.70
2023-04-10T11:58:54.722Z,19.30
2023-04-10T12:01:26.167Z,17.70
2023-04-10T12:03:56.746Z,18.10
2023-04-10T12:06:28.218Z,16.90
2023-04-10T12:08:58.790Z,17.40
2023-04-10T12:11:29.757Z,18.20
2023-04-10T12:14:00.479Z,18.30
2023-04-10T12:16:33.198Z,17.50
2023-04-10T12:19:04.961Z,16.30
2023-04-10T12:21:36.721Z,17.50
2023-04-10T12:24:07.613Z,18.00
2023-04-10T12:26:38.400Z,17.80
2023-04-10T12:29:10.043Z,18.10
2023-04-10T12:31:40.831Z,17.40
2023-04-10T12:34:12.034Z,18.20
2023-04-10T12:36:42.624Z,21.20
2023-04-10T12:39:25.504Z,18.00
2023-04-10T12:42:11.548Z,18.30
2023-04-10T12:44:54.462Z,16.30
2023-04-10T12:47:25.233Z,16.50
2023-04-10T12:50:13.491Z,16.60
2023-04-10T12:52:46.098Z,16.60
2023-04-10T12:55:18.917Z,17.80
2023-04-10T12:57:51.856Z,17.90
2023-04-10T13:00:22.645Z,17.70
2023-04-10T13:02:53.588Z,17.10
2023-04-10T13:05:25.204Z,17.00
2023-04-10T13:07:55.780Z,17.10
2023-04-10T13:10:26.611Z,16.00
2023-04-10T13:12:57.115Z,16.40
2023-04-10T13:15:27.544Z,19.50
2023-04-10T13:17:58.037Z,16.20
2023-04-10T13:20:28.802Z,15.80
2023-04-10T13:22:59.251Z,14.10
2023-04-10T13:25:29.738Z,14.60
2023-04-10T13:28:00.427Z,15.70
2023-04-10T13:30:31.343Z,14.10
2023-04-10T13:33:01.855Z,13.20
2023-04-10T13:35:32.416Z,15.40
2023-04-10T13:38:03.868Z,14.80
2023-04-10T13:40:34.414Z,15.20
2023-04-10T13:43:06.478Z,14.60
2023-04-10T13:45:37.054Z,13.50
2023-04-10T13:48:08.359Z,12.80
2023-04-10T13:50:38.794Z,12.20
2023-04-10T13:53:10.339Z,11.90
2023-04-10T13:55:43.798Z,11.20
2023-04-10T13:58:14.392Z,9.90
2023-04-10T14:00:46.658Z,10.60
2023-04-10T14:03:17.265Z,10.00
2023-04-10T14:05:48.212Z,9.20
2023-04-10T14:08:19.115Z,8.90
2023-04-10T14:10:50.921Z,9.70
2023-04-10T14:13:21.746Z,9.30
2023-04-10T14:15:53.819Z,10.10
2023-04-10T14:18:24.245Z,10.10
2023-04-10T14:20:54.650Z,9.90
2023-04-10T14:23:25.090Z,9.10
2023-04-10T14:25:55.664Z,10.50
2023-04-10T14:28:26.152Z,10.60
2023-04-10T14:30:56.602Z,18.20
2023-04-10T14:33:27.115Z,12.90
2023-04-10T14:35:57.566Z,10.90
2023-04-10T14:38:28.168Z,11.10
2023-04-10T14:40:58.586Z,11.40
2023-04-10T14:43:29.069Z,10.60
2023-04-10T14:45:59.518Z,10.60
2023-04-10T14:48:30.197Z,8.60
2023-04-10T14:51:01.448Z,9.80
2023-04-10T14:53:31.905Z,11.30
2023-04-10T14:56:02.496Z,9.50
2023-04-10T14:58:32.959Z,10.40
2023-04-10T15:01:03.402Z,11.20
2023-04-10T15:03:33.972Z,10.20
2023-04-10T15:06:04.848Z,10.20
2023-04-10T15:08:35.269Z,10.10
2023-04-10T15:11:06.487Z,9.70
2023-04-10T15:13:37.848Z,10.70
2023-04-10T15:16:09.570Z,10.80
2023-04-10T15:18:39.986Z,10.80
2023-04-10T15:21:10.501Z,11.30
2023-04-10T15:23:41.194Z,10.50
2023-04-10T15:26:14.975Z,11.00
2023-04-10T15:28:45.675Z,10.40
2023-04-10T15:31:16.639Z,10.40
2023-04-10T15:33:47.122Z,9.60
2023-04-10T15:36:18.106Z,8.80
2023-04-10T15:38:50.175Z,8.50
2023-04-10T15:41:21.049Z,9.50
2023-04-10T15:43:51.577Z,8.60
2023-04-10T15:46:22.252Z,8.30
2023-04-10T15:48:52.907Z,8.20
2023-04-10T15:51:23.368Z,7.50
2023-04-10T15:53:54.649Z,8.00
2023-04-10T15:56:25.450Z,8.20
2023-04-10T15:58:55.962Z,9.60
2023-04-10T16:01:26.427Z,8.50
2023-04-10T16:03:57.353Z,10.70
2023-04-10T16:06:28.287Z,9.80
2023-04-10T16:08:58.699Z,8.80
2023-04-10T16:11:29.162Z,10.40
2023-04-10T16:13:59.558Z,9.90
2023-04-10T16:16:30.667Z,9.70
2023-04-10T16:19:01.911Z,10.20
2023-04-10T16:21:32.701Z,9.80
2023-04-10T16:24:03.271Z,10.20
2023-04-10T16:26:33.807Z,10.00
2023-04-10T16:29:04.274Z,10.20
2023-04-10T16:31:34.846Z,10.40
2023-04-10T16:34:05.378Z,11.30
2023-04-10T16:36:35.854Z,10.40
2023-04-10T16:39:07.437Z,10.20
2023-04-10T16:41:37.904Z,10.70
2023-04-10T16:44:08.544Z,11.10
2023-04-10T16:46:39.074Z,11.00
2023-04-10T16:49:09.600Z,11.10
2023-04-10T16:51:40.119Z,11.20
2023-04-10T16:54:11.015Z,10.40
2023-04-10T16:56:41.518Z,11.20
2023-04-10T16:59:11.931Z,9.10
2023-04-10T17:01:42.442Z,10.40
2023-04-10T17:04:13.632Z,10.60
2023-04-10T17:06:44.216Z,10.20
2023-04-10T17:09:14.656Z,10.10
2023-04-10T17:11:45.311Z,10.20
2023-04-10T17:14:16.179Z,10.40
2023-04-10T17:16:46.802Z,10.10
2023-04-10T17:19:17.655Z,10.90
2023-04-10T17:21:48.145Z,10.70
2023-04-10T17:24:18.612Z,11.30
2023-04-10T17:26:49.238Z,13.10
2023-04-10T17:29:19.693Z,11.10
2023-04-10T17:31:50.136Z,12.20
2023-04-10T17:34:20.639Z,12.80
2023-04-10T17:36:51.108Z,11.70
2023-04-10T17:39:21.540Z,12.70
2023-04-10T17:41:52.108Z,11.90
2023-04-10T17:44:22.543Z,12.00
2023-04-10T17:46:54.303Z,12.20
2023-04-10T17:49:25.289Z,12.30
2023-04-10T17:51:56.178Z,12.50
2023-04-10T17:54:26.637Z,13.00
2023-04-10T17:56:57.140Z,12.90
2023-04-10T17:59:30.627Z,13.00
2023-04-10T18:02:01.164Z,15.70
2023-04-10T18:04:31.782Z,15.30
2023-04-10T18:07:02.221Z,15.80
2023-04-10T18:09:32.718Z,15.20
2023-04-10T18:12:03.275Z,14.00
2023-04-10T18:14:33.764Z,14.80
2023-04-10T18:17:05.693Z,15.20
2023-04-10T18:19:36.232Z,15.50
2023-04-10T18:22:06.700Z,15.20
2023-04-10T18:24:37.193Z,15.50
2023-04-10T18:27:07.728Z,14.80
2023-04-10T18:29:38.187Z,14.50
2023-04-10T18:32:09.193Z,15.30
2023-04-10T18:34:39.814Z,15.00
2023-04-10T18:37:10.274Z,16.10
2023-04-10T18:39:40.722Z,16.10
2023-04-10T18:42:11.675Z,14.20
2023-04-10T18:44:42.317Z,14.10
2023-04-10T18:47:12.820Z,14.80
2023-04-10T18:49:43.866Z,15.70
2023-04-10T18:52:14.453Z,16.00
2023-04-10T18:54:46.332Z,15.80
2023-04-10T18:57:16.762Z,16.20
2023-04-10T18:59:47.238Z,16.70
2023-04-10T19:02:17.900Z,15.50
2023-04-10T19:04:48.726Z,14.60
2023-04-10T19:07:19.440Z,15.70
2023-04-10T19:09:49.969Z,16.00
2023-04-10T19:12:20.448Z,15.60
2023-04-10T19:14:50.924Z,15.00
2023-04-10T19:17:21.898Z,15.30
2023-04-10T19:19:53.307Z,14.70
2023-04-10T19:22:23.834Z,16.20
2023-04-10T19:24:54.310Z,16.40
2023-04-10T19:27:25.727Z,15.20
2023-04-10T19:29:56.242Z,15.30
2023-04-10T19:32:26.837Z,16.40
2023-04-10T19:34:57.339Z,17.30
2023-04-10T19:37:27.863Z,17.60
2023-04-10T19:40:00.394Z,16.50
2023-04-10T19:42:30.911Z,18.80
2023-04-10T19:45:01.386Z,16.90
2023-04-10T19:47:31.849Z,17.70
2023-04-10T19:50:02.843Z,17.50
2023-04-10T19:52:33.358Z,17.10
2023-04-10T19:55:03.868Z,19.20
2023-04-10T19:57:34.437Z,16.80
2023-04-10T20:00:05.272Z,18.10
2023-04-10T20:02:43.133Z,18.60
2023-04-10T20:05:14.024Z,19.40
2023-04-10T20:07:44.752Z,18.50
2023-04-10T20:10:16.434Z,19.10
2023-04-10T20:12:47.057Z,18.20
2023-04-10T20:15:17.727Z,18.80
2023-04-10T20:17:48.275Z,18.70
2023-04-10T20:20:18.802Z,18.50
2023-04-10T20:22:49.257Z,18.00
2023-04-10T20:25:19.793Z,18.00
2023-04-10T20:27:50.281Z,18.10
2023-04-10T20:30:20.945Z,17.50
2023-04-10T20:32:51.496Z,19.30
2023-04-10T20:35:22.514Z,17.70
2023-04-10T20:37:53.593Z,18.10
2023-04-10T20:40:24.104Z,17.70
2023-04-10T20:42:55.160Z,18.10
2023-04-10T20:45:25.749Z,19.00
2023-04-10T20:47:58.305Z,19.10
2023-04-10T20:50:28.888Z,19.10
2023-04-10T20:52:59.357Z,17.90
2023-04-10T20:55:29.933Z,18.60
2023-04-10T20:58:00.361Z,17.70
2023-04-10T21:00:31.654Z,18.90
2023-04-10T21:03:02.290Z,17.40
2023-04-10T21:05:32.955Z,19.00
2023-04-10T21:08:03.444Z,19.60
2023-04-10T21:10:34.743Z,17.70
2023-04-10T21:13:05.760Z,19.20
2023-04-10T21:15:36.218Z,18.40
2023-04-10T21:18:07.365Z,18.60
2023-04-10T21:20:37.832Z,18.70
2023-04-10T21:23:08.286Z,18.20
2023-04-10T21:25:39.984Z,18.90
2023-04-10T21:28:10.446Z,19.30
2023-04-10T21:30:40.867Z,20.70
2023-04-10T21:33:11.278Z,19.90
2023-04-10T21:35:45.153Z,19.70
2023-04-10T21:38:15.824Z,21.40
2023-04-10T21:40:53.072Z,20.80
2023-04-10T21:43:23.737Z,20.60
2023-04-10T21:45:54.334Z,20.40
2023-04-10T21:48:24.906Z,19.80
2023-04-10T21:50:55.786Z,20.70
2023-04-10T21:53:26.346Z,21.80
2023-04-10T21:55:57.187Z,19.90
2023-04-10T21:58:27.624Z,20.40
2023-04-10T22:00:58.301Z,21.10
2023-04-10T22:03:28.930Z,21.60
2023-04-10T22:05:59.633Z,20.70
2023-04-10T22:08:30.356Z,20.30
2023-04-10T22:11:00.882Z,20.70
2023-04-10T22:13:31.465Z,21.80
2023-04-10T22:16:02.949Z,21.60
2023-04-10T22:18:33.873Z,22.00
2023-04-10T22:21:04.405Z,21.80
2023-04-10T22:23:35.279Z,22.40
2023-04-10T22:26:05.898Z,22.60
2023-04-10T22:28:36.366Z,22.70
2023-04-10T22:31:07.392Z,23.50
2023-04-10T22:33:38.309Z,22.60
2023-04-10T22:36:10.609Z,23.00
2023-04-10T22:38:41.155Z,22.90
2023-04-10T22:41:11.940Z,22.40
2023-04-10T22:43:42.362Z,22.70
2023-04-10T22:46:13.126Z,21.40
2023-04-10T22:48:46.316Z,22.60
2023-04-10T22:51:17.586Z,22.40
2023-04-10T22:53:48.023Z,22.90
2023-04-10T22:56:19.442Z,22.40
2023-04-10T22:58:49.892Z,22.10
2023-04-10T23:01:20.822Z,24.40
2023-04-10T23:03:53.966Z,23.10
2023-04-10T23:06:24.598Z,24.70
2023-04-10T23:08:55.308Z,22.30
2023-04-10T23:11:26.418Z,23.60
2023-04-10T23:13:57.025Z,22.60
2023-04-10T23:16:27.523Z,24.40
2023-04-10T23:18:58.025Z,22.80
2023-04-10T23:21:28.585Z,25.00
2023-04-10T23:23:59.075Z,23.80
2023-04-10T23:26:32.445Z,22.90
2023-04-10T23:29:03.390Z,23.00
2023-04-10T23:31:33.849Z,22.00
2023-04-10T23:34:04.407Z,22.80
2023-04-10T23:36:34.975Z,23.00
2023-04-10T23:39:05.449Z,22.70
2023-04-10T23:41:35.888Z,23.40
2023-04-10T23:44:06.454Z,23.70
2023-04-10T23:46:37.131Z,23.90
2023-04-10T23:49:07.641Z,22.00
2023-04-10T23:51:38.107Z,23.30
2023-04-10T23:54:09.432Z,22.50
2023-04-10T23:56:40.289Z,22.50
2023-04-10T23:59:10.762Z,23.40
